createdAt,value
2018-09-29T00:02:02.674Z,2.03
2018-09-29T00:05:05.801Z,1.90
2018-09-29T00:08:08.980Z,1.70
2018-09-29T00:11:12.056Z,1.77
2018-09-29T00:14:15.123Z,1.70
2018-09-29T00:17:18.260Z,1.60
2018-09-29T00:20:21.351Z,1.90
2018-09-29T00:23:24.444Z,1.73
2018-09-29T00:26:27.525Z,1.73
2018-09-29T00:29:30.705Z,1.57
2018-09-29T00:32:33.895Z,1.83
2018-09-29T00:35:36.999Z,1.67
2018-09-29T00:38:40.075Z,1.70
2018-09-29T00:41:44.196Z,1.40
2018-09-29T00:44:47.332Z,1.83
2018-09-29T00:47:50.407Z,1.70
2018-09-29T00:50:54.520Z,1.60
2018-09-29T00:53:57.597Z,1.70
2018-09-29T00:57:00.700Z,1.30
2018-09-29T01:00:03.884Z,1.90
2018-09-29T01:03:07.164Z,1.37
2018-09-29T01:06:10.366Z,1.70
2018-09-29T01:09:13.455Z,1.70
2018-09-29T01:12:16.625Z,1.63
2018-09-29T01:15:19.739Z,1.50
2018-09-29T01:18:22.852Z,1.60
2018-09-29T01:21:25.948Z,1.27
2018-09-29T01:24:29.077Z,1.30
2018-09-29T01:27:32.208Z,1.40
2018-09-29T01:30:35.333Z,1.23
2018-09-29T01:33:38.612Z,1.23
2018-09-29T01:36:41.997Z,1.63
2018-09-29T01:39:45.190Z,1.47
2018-09-29T01:42:48.436Z,1.50
2018-09-29T01:45:51.607Z,1.20
2018-09-29T01:48:54.992Z,1.30
2018-09-29T01:51:58.288Z,1.47
2018-09-29T01:55:01.500Z,1.30
2018-09-29T01:58:04.816Z,1.53
2018-09-29T02:01:07.941Z,1.40
2018-09-29T02:04:11.056Z,1.30
2018-09-29T02:07:14.158Z,1.40
2018-09-29T02:10:17.250Z,1.40
2018-09-29T02:13:20.458Z,1.30
2018-09-29T02:16:23.541Z,1.30
2018-09-29T02:19:26.658Z,1.33
2018-09-29T02:22:29.751Z,1.40
2018-09-29T02:25:32.840Z,1.20
2018-09-29T02:28:35.973Z,1.17
2018-09-29T02:31:39.112Z,1.37
2018-09-29T02:34:42.212Z,1.47
2018-09-29T02:37:45.316Z,1.47
2018-09-29T02:40:48.389Z,1.07
2018-09-29T02:43:51.484Z,1.33
2018-09-29T02:46:54.563Z,1.43
2018-09-29T02:49:57.670Z,1.60
2018-09-29T02:53:01.050Z,1.40
2018-09-29T02:56:04.172Z,1.43
2018-09-29T02:59:07.427Z,1.30
2018-09-29T03:02:10.543Z,1.40
2018-09-29T03:05:13.702Z,1.20
2018-09-29T03:08:16.820Z,1.37
2018-09-29T03:11:19.939Z,1.20
2018-09-29T03:14:23.044Z,1.40
2018-09-29T03:17:26.214Z,1.50
2018-09-29T03:20:29.311Z,1.30
2018-09-29T03:23:32.433Z,1.40
2018-09-29T03:26:35.515Z,1.30
2018-09-29T03:29:38.612Z,1.50
2018-09-29T03:32:41.793Z,1.33
2018-09-29T03:35:44.911Z,1.32
2018-09-29T03:38:47.996Z,1.27
2018-09-29T03:41:51.100Z,1.30
2018-09-29T03:44:54.181Z,1.13
2018-09-29T03:47:57.388Z,1.37
2018-09-29T03:51:00.464Z,1.30
2018-09-29T03:54:03.672Z,1.33
2018-09-29T03:57:06.741Z,1.10
2018-09-29T04:00:09.820Z,1.40
2018-09-29T04:03:12.934Z,1.13
2018-09-29T04:06:16.108Z,1.10
2018-09-29T04:09:19.177Z,1.50
2018-09-29T04:12:22.359Z,1.27
2018-09-29T04:15:25.465Z,1.60
2018-09-29T04:18:28.568Z,1.30
2018-09-29T04:21:39.154Z,1.30
2018-09-29T04:24:42.245Z,1.33
2018-09-29T04:27:45.405Z,1.20
2018-09-29T04:30:48.735Z,1.20
2018-09-29T04:33:51.828Z,1.30
2018-09-29T04:36:54.904Z,1.60
2018-09-29T04:39:58.014Z,1.60
2018-09-29T04:43:01.119Z,1.40
2018-09-29T04:46:04.204Z,1.63
2018-09-29T04:49:07.438Z,1.50
2018-09-29T04:52:10.589Z,1.77
2018-09-29T04:55:13.684Z,1.63
2018-09-29T04:58:16.888Z,1.57
2018-09-29T05:01:20.032Z,1.70
2018-09-29T05:04:23.134Z,1.60
2018-09-29T05:07:26.292Z,1.80
2018-09-29T05:10:29.485Z,1.70
2018-09-29T05:13:32.556Z,1.63
2018-09-29T05:16:35.656Z,2.13
2018-09-29T05:19:38.800Z,1.83
2018-09-29T05:22:41.932Z,2.10
2018-09-29T05:25:45.035Z,1.93
2018-09-29T05:28:48.114Z,1.77
2018-09-29T05:31:51.319Z,1.90
2018-09-29T05:34:54.408Z,1.77
2018-09-29T05:37:57.548Z,2.00
2018-09-29T05:41:00.723Z,1.80
2018-09-29T05:44:03.815Z,2.13
2018-09-29T05:47:06.984Z,1.87
2018-09-29T05:50:10.085Z,1.70
2018-09-29T05:53:13.300Z,1.87
2018-09-29T05:56:16.443Z,1.83
2018-09-29T05:59:19.561Z,2.13
2018-09-29T06:02:22.736Z,2.07
2018-09-29T06:05:25.907Z,2.10
2018-09-29T06:08:29.016Z,1.93
2018-09-29T06:11:32.237Z,1.70
2018-09-29T06:14:35.340Z,1.80
2018-09-29T06:17:38.461Z,2.07
2018-09-29T06:20:41.580Z,1.80
2018-09-29T06:23:44.720Z,1.90
2018-09-29T06:26:48.106Z,1.80
2018-09-29T06:29:51.447Z,2.10
2018-09-29T06:32:54.667Z,2.03
2018-09-29T06:35:57.799Z,1.77
2018-09-29T06:39:00.903Z,2.50
2018-09-29T06:42:04.120Z,2.63
2018-09-29T06:45:07.292Z,2.70
2018-09-29T06:48:10.554Z,3.40
2018-09-29T06:51:13.621Z,4.37
2018-09-29T06:54:16.761Z,4.67
2018-09-29T06:57:19.862Z,4.00
2018-09-29T07:00:23.288Z,4.15
2018-09-29T07:03:26.434Z,3.57
2018-09-29T07:06:29.657Z,3.43
2018-09-29T07:09:32.864Z,3.27
2018-09-29T07:12:36.085Z,3.13
2018-09-29T07:15:39.260Z,3.33
2018-09-29T07:18:42.444Z,2.93
2018-09-29T07:21:45.756Z,2.87
2018-09-29T07:24:48.969Z,3.03
2018-09-29T07:27:52.228Z,3.10
2018-09-29T07:30:55.525Z,2.67
2018-09-29T07:33:58.730Z,3.33
2018-09-29T07:37:01.916Z,2.87
2018-09-29T07:40:05.160Z,2.90
2018-09-29T07:43:08.979Z,2.73
2018-09-29T07:46:12.369Z,3.17
2018-09-29T07:49:16.020Z,3.13
2018-09-29T07:52:19.666Z,3.23
2018-09-29T07:55:23.953Z,2.80
2018-09-29T07:58:28.120Z,2.63
2018-09-29T08:01:31.277Z,3.08
2018-09-29T08:04:34.464Z,2.83
2018-09-29T08:07:37.664Z,2.70
2018-09-29T08:10:40.757Z,2.33
2018-09-29T08:13:43.941Z,2.60
2018-09-29T08:16:47.077Z,3.00
2018-09-29T08:19:50.185Z,2.50
2018-09-29T08:30:25.260Z,2.10
2018-09-29T08:33:28.410Z,1.90
2018-09-29T08:36:31.546Z,1.93
2018-09-29T08:39:34.698Z,2.10
2018-09-29T08:42:38.404Z,1.90
2018-09-29T08:45:41.501Z,2.27
2018-09-29T08:48:44.712Z,1.60
2018-09-29T08:51:48.113Z,1.80
2018-09-29T08:54:53.037Z,1.80
2018-09-29T08:57:56.170Z,2.00
2018-09-29T09:00:59.331Z,1.80
2018-09-29T09:04:02.614Z,2.20
2018-09-29T09:07:06.146Z,1.60
2018-09-29T09:10:09.261Z,2.10
2018-09-29T09:13:20.785Z,1.83
2018-09-29T09:16:24.508Z,2.07
2018-09-29T09:19:27.736Z,1.70
2018-09-29T09:22:30.912Z,1.53
2018-09-29T09:25:34.089Z,1.70
2018-09-29T09:28:37.292Z,1.67
2018-09-29T09:31:42.020Z,1.73
2018-09-29T09:34:45.508Z,1.70
2018-09-29T09:37:48.821Z,1.63
2018-09-29T09:40:51.968Z,1.60
2018-09-29T09:43:55.082Z,1.60
2018-09-29T09:46:58.207Z,1.57
2018-09-29T09:50:01.356Z,1.60
2018-09-29T09:53:04.657Z,1.33
2018-09-29T09:56:08.037Z,1.40
2018-09-29T09:59:11.116Z,1.33
2018-09-29T10:02:19.731Z,1.60
2018-09-29T10:05:23.689Z,1.40
2018-09-29T10:08:26.809Z,1.60
2018-09-29T10:11:29.950Z,1.53
2018-09-29T10:14:33.280Z,1.73
2018-09-29T10:17:36.469Z,1.30
2018-09-29T10:20:39.512Z,1.52
2018-09-29T10:23:47.057Z,1.50
2018-09-29T10:26:50.289Z,1.60
2018-09-29T10:29:53.385Z,1.10
2018-09-29T10:32:57.923Z,1.40
2018-09-29T10:36:01.138Z,1.23
2018-09-29T10:39:06.105Z,1.10
2018-09-29T10:42:09.256Z,1.53
2018-09-29T10:45:12.364Z,1.13
2018-09-29T10:48:15.471Z,1.30
2018-09-29T10:51:18.600Z,1.22
2018-09-29T10:54:21.715Z,1.10
2018-09-29T10:57:24.829Z,1.10
2018-09-29T11:00:28.028Z,1.30
2018-09-29T11:03:31.226Z,1.30
2018-09-29T11:06:34.384Z,1.10
2018-09-29T11:09:37.485Z,0.97
2018-09-29T11:12:40.593Z,1.20
2018-09-29T11:15:43.699Z,1.17
2018-09-29T11:18:46.833Z,1.10
2018-09-29T11:21:49.993Z,1.10
2018-09-29T11:24:53.120Z,1.10
2018-09-29T11:27:56.295Z,1.20
2018-09-29T11:30:59.354Z,1.10
2018-09-29T11:34:02.457Z,1.10
2018-09-29T11:37:05.816Z,1.27
2018-09-29T11:40:09.024Z,1.47
2018-09-29T11:43:12.148Z,1.20
2018-09-29T11:46:15.238Z,0.90
2018-09-29T11:49:18.477Z,1.20
2018-09-29T11:52:21.599Z,1.10
2018-09-29T11:55:24.705Z,0.87
2018-09-29T11:58:27.844Z,1.10
2018-09-29T12:01:30.937Z,1.20
2018-09-29T12:04:34.175Z,1.20
2018-09-29T12:07:37.309Z,1.00
2018-09-29T12:10:40.461Z,0.90
2018-09-29T12:13:43.761Z,1.00
2018-09-29T12:16:46.857Z,1.07
2018-09-29T12:19:49.984Z,0.97
2018-09-29T12:22:53.061Z,1.10
2018-09-29T12:25:56.172Z,1.30
2018-09-29T12:29:00.242Z,1.00
2018-09-29T12:32:03.349Z,1.03
2018-09-29T12:35:06.565Z,1.00
2018-09-29T12:38:09.672Z,1.00
2018-09-29T12:41:12.890Z,1.00
2018-09-29T12:44:16.078Z,1.00
2018-09-29T12:47:19.219Z,1.13
2018-09-29T12:50:22.331Z,0.90
2018-09-29T12:53:25.420Z,0.90
2018-09-29T12:56:28.576Z,0.80
2018-09-29T12:59:31.692Z,1.00
2018-09-29T13:02:34.824Z,1.07
2018-09-29T13:05:37.951Z,1.13
2018-09-29T13:08:41.075Z,1.00
2018-09-29T13:11:44.184Z,1.03
2018-09-29T13:14:47.300Z,1.00
2018-09-29T13:17:50.451Z,1.00
2018-09-29T13:20:53.552Z,0.90
2018-09-29T13:23:56.738Z,0.83
2018-09-29T13:26:59.974Z,1.00
2018-09-29T13:30:04.157Z,1.00
2018-09-29T13:33:07.363Z,1.00
2018-09-29T13:36:16.190Z,1.10
2018-09-29T13:39:19.392Z,1.20
2018-09-29T13:42:22.619Z,1.00
2018-09-29T13:45:25.992Z,1.20
2018-09-29T13:48:29.111Z,1.10
2018-09-29T13:51:32.769Z,0.90
2018-09-29T13:54:35.900Z,1.00
2018-09-29T13:57:39.080Z,1.00
2018-09-29T14:00:42.250Z,0.80
2018-09-29T14:03:45.348Z,0.80
2018-09-29T14:06:48.702Z,0.97
2018-09-29T14:09:51.848Z,0.90
2018-09-29T14:12:55.036Z,1.00
2018-09-29T14:15:58.147Z,0.73
2018-09-29T14:19:01.331Z,0.80
2018-09-29T14:22:04.432Z,1.00
2018-09-29T14:25:07.544Z,1.07
2018-09-29T14:28:10.683Z,1.03
2018-09-29T14:31:14.969Z,0.70
2018-09-29T14:34:18.117Z,0.93
2018-09-29T14:37:21.312Z,0.80
2018-09-29T14:40:24.429Z,1.13
2018-09-29T14:43:27.611Z,0.70
2018-09-29T14:46:30.894Z,0.90
2018-09-29T14:49:34.024Z,0.70
2018-09-29T14:52:37.392Z,0.90
2018-09-29T14:55:40.541Z,0.80
2018-09-29T14:58:44.073Z,0.90
2018-09-29T15:01:47.861Z,0.83
2018-09-29T15:04:50.967Z,0.80
2018-09-29T15:07:54.166Z,0.80
2018-09-29T15:10:57.284Z,0.70
2018-09-29T15:14:00.470Z,0.80
2018-09-29T15:17:03.618Z,0.87
2018-09-29T15:20:06.787Z,0.90
2018-09-29T15:23:09.885Z,1.10
2018-09-29T15:26:13.352Z,0.80
2018-09-29T15:29:16.580Z,0.90
2018-09-29T15:32:19.825Z,0.80
2018-09-29T15:35:24.093Z,0.72
2018-09-29T15:38:27.288Z,0.83
2018-09-29T15:41:30.389Z,0.90
2018-09-29T15:44:33.495Z,1.00
2018-09-29T15:47:36.648Z,1.10
2018-09-29T15:50:39.816Z,0.90
2018-09-29T15:53:42.928Z,0.83
2018-09-29T15:56:46.163Z,1.00
2018-09-29T15:59:49.399Z,1.00
2018-09-29T16:02:52.604Z,1.00
2018-09-29T16:05:55.748Z,0.80
2018-09-29T16:08:58.933Z,0.80
2018-09-29T16:12:02.032Z,0.90
2018-09-29T16:15:05.301Z,0.80
2018-09-29T16:18:08.431Z,1.00
2018-09-29T16:21:11.596Z,0.80
2018-09-29T16:24:14.746Z,0.90
2018-09-29T16:27:17.900Z,0.90
2018-09-29T16:30:21.048Z,0.90
2018-09-29T16:33:24.188Z,0.90
2018-09-29T16:36:27.289Z,0.90
2018-09-29T16:39:30.392Z,0.97
2018-09-29T16:42:33.486Z,0.80
2018-09-29T16:45:36.676Z,0.90
2018-09-29T16:48:39.840Z,1.00
2018-09-29T16:51:43.087Z,1.03
2018-09-29T16:54:47.093Z,1.00
2018-09-29T16:57:50.216Z,0.80
2018-09-29T17:00:53.342Z,0.90
2018-09-29T17:03:56.513Z,0.90
2018-09-29T17:06:59.780Z,1.07
2018-09-29T17:10:02.977Z,1.00
2018-09-29T17:13:06.093Z,0.97
2018-09-29T17:16:09.203Z,0.80
2018-09-29T17:19:12.294Z,0.70
2018-09-29T17:22:15.412Z,1.00
2018-09-29T17:25:18.588Z,1.10
2018-09-29T17:28:21.680Z,1.00
2018-09-29T17:31:24.783Z,1.00
2018-09-29T17:34:27.927Z,1.00
2018-09-29T17:37:31.062Z,1.00
2018-09-29T17:40:34.170Z,0.90
2018-09-29T17:43:37.280Z,1.00
2018-09-29T17:46:40.547Z,1.20
2018-09-29T17:49:43.710Z,0.97
2018-09-29T17:52:47.679Z,1.00
2018-09-29T17:55:50.781Z,1.00
2018-09-29T17:58:53.997Z,1.00
2018-09-29T18:01:57.071Z,1.00
2018-09-29T18:05:00.234Z,1.10
2018-09-29T18:08:03.381Z,0.90
2018-09-29T18:11:06.543Z,0.90
2018-09-29T18:14:09.718Z,0.90
2018-09-29T18:17:12.872Z,0.80
2018-09-29T18:20:16.109Z,1.00
2018-09-29T18:23:19.241Z,1.00
2018-09-29T18:26:22.375Z,1.20
2018-09-29T18:29:25.509Z,1.07
2018-09-29T18:32:28.681Z,1.00
2018-09-29T18:35:31.820Z,1.20
2018-09-29T18:38:35.015Z,0.97
2018-09-29T18:41:38.572Z,0.95
2018-09-29T18:44:41.799Z,1.20
2018-09-29T18:47:45.785Z,1.20
2018-09-29T18:50:48.948Z,1.10
2018-09-29T18:53:52.064Z,1.20
2018-09-29T18:56:55.285Z,1.10
2018-09-29T18:59:58.396Z,1.20
2018-09-29T19:03:01.539Z,1.10
2018-09-29T19:06:04.773Z,1.30
2018-09-29T19:09:09.423Z,1.00
2018-09-29T19:12:12.495Z,1.37
2018-09-29T19:15:15.604Z,1.20
2018-09-29T19:18:18.760Z,1.03
2018-09-29T19:21:21.864Z,1.20
2018-09-29T19:24:24.983Z,1.10
2018-09-29T19:27:28.105Z,1.30
2018-09-29T19:30:31.286Z,1.20
2018-09-29T19:33:34.495Z,1.20
2018-09-29T19:36:37.620Z,1.30
2018-09-29T19:39:40.742Z,1.20
2018-09-29T19:42:43.820Z,1.10
2018-09-29T19:45:47.044Z,1.30
2018-09-29T19:48:50.106Z,1.37
2018-09-29T19:51:53.219Z,1.30
2018-09-29T19:54:56.372Z,1.20
2018-09-29T19:57:59.583Z,1.37
2018-09-29T20:01:02.703Z,1.53
2018-09-29T20:04:05.809Z,1.40
2018-09-29T20:07:08.978Z,1.40
2018-09-29T20:10:12.287Z,1.57
2018-09-29T20:13:15.381Z,1.30
2018-09-29T20:16:18.487Z,1.40
2018-09-29T20:19:21.615Z,1.67
2018-09-29T20:22:24.741Z,1.47
2018-09-29T20:25:27.900Z,1.60
2018-09-29T20:28:31.026Z,1.40
2018-09-29T20:31:34.245Z,1.67
2018-09-29T20:34:37.348Z,1.70
2018-09-29T20:37:40.461Z,1.80
2018-09-29T20:40:43.632Z,1.53
2018-09-29T20:43:46.760Z,1.53
2018-09-29T20:46:49.900Z,1.70
2018-09-29T20:49:53.031Z,1.60
2018-09-29T20:52:56.155Z,2.00
2018-09-29T20:55:59.297Z,1.60
2018-09-29T20:59:02.635Z,1.70
2018-09-29T21:02:05.778Z,1.80
2018-09-29T21:05:08.917Z,1.80
2018-09-29T21:08:12.198Z,1.70
2018-09-29T21:11:15.356Z,2.00
2018-09-29T21:14:18.501Z,1.93
2018-09-29T21:17:22.033Z,2.10
2018-09-29T21:20:25.280Z,2.20
2018-09-29T21:23:28.434Z,2.03
2018-09-29T21:26:31.556Z,1.80
2018-09-29T21:29:34.780Z,2.00
2018-09-29T21:32:37.916Z,2.10
2018-09-29T21:35:42.075Z,2.27
2018-09-29T21:38:45.185Z,2.30
2018-09-29T21:41:48.318Z,2.30
2018-09-29T21:44:51.416Z,2.40
2018-09-29T21:47:54.532Z,2.43
2018-09-29T21:50:57.644Z,2.30
2018-09-29T21:54:00.852Z,2.20
2018-09-29T21:57:03.991Z,2.20
2018-09-29T22:00:07.104Z,2.40
2018-09-29T22:03:10.604Z,2.30
2018-09-29T22:06:13.716Z,2.37
2018-09-29T22:09:23.604Z,2.20
2018-09-29T22:12:26.729Z,2.33
2018-09-29T22:15:29.900Z,2.50
2018-09-29T22:18:33.138Z,2.30
2018-09-29T22:21:41.980Z,2.57
2018-09-29T22:24:45.109Z,2.37
2018-09-29T22:27:54.666Z,2.90
2018-09-29T22:30:58.000Z,2.80
2018-09-29T22:34:01.179Z,2.53
2018-09-29T22:37:04.297Z,2.57
2018-09-29T22:40:07.527Z,2.63
2018-09-29T22:43:10.616Z,2.43
2018-09-29T22:46:13.716Z,2.43
2018-09-29T22:49:16.971Z,2.53
2018-09-29T22:52:20.162Z,2.53
2018-09-29T22:55:24.259Z,2.17
2018-09-29T22:58:27.348Z,2.60
2018-09-29T23:01:30.560Z,2.73
2018-09-29T23:04:33.654Z,2.67
2018-09-29T23:07:36.956Z,2.30
2018-09-29T23:10:40.055Z,2.60
2018-09-29T23:13:43.161Z,2.67
2018-09-29T23:16:46.261Z,2.77
2018-09-29T23:19:49.417Z,2.40
2018-09-29T23:22:52.542Z,2.53
2018-09-29T23:25:55.669Z,2.60
2018-09-29T23:28:58.799Z,2.53
2018-09-29T23:32:01.908Z,2.80
2018-09-29T23:35:05.199Z,2.40
2018-09-29T23:38:08.300Z,2.20
2018-09-29T23:41:11.379Z,2.20
2018-09-29T23:44:14.463Z,2.57
2018-09-29T23:47:17.680Z,2.47
2018-09-29T23:50:20.792Z,2.63
2018-09-29T23:53:23.920Z,2.30
2018-09-29T23:56:27.324Z,2.73
2018-09-29T23:59:30.492Z,2.50
